| Temperature (°F) | Max | Average | Min |
|---|---|---|---|
| Max Temperature | 87 | 71.42 | 46 |
| Avg Temperature | 71.67 | 59.68 | 43.39 |
| Min Temperature | 64 | 47.77 | 24 |
| Dew Point (°F) | Max | Average | Min |
|---|---|---|---|
| Dew Point | 70 | 48.77 | 10 |
| Precipitation (in) | Max | Average | Min | Sum |
|---|---|---|---|---|
| Precipitation | 0.53 | 0.02 | 0.00 | 0.54 |
| Snowdepth | 0.00 | 0.00 | 0.00 | 0.00 |
| Wind (mph) | Max | Average | Min |
|---|---|---|---|
| Wind | 38 | 7.64 | 0 |
| Gust Wind | 52 | 2.14 | 0 |
| Sea Level Pressure (in) | Max | Average | Min |
|---|---|---|---|
| Sea Level Pressure | 30.35 | 30.02 | 29.67 |
| Date | Temperature (°F) | Dew Point (°F) | Humidity (%) | Wind Speed (mph) | Pressure (in) | Precipitation (in) | ||||||||||
|---|---|---|---|---|---|---|---|---|---|---|---|---|---|---|---|---|
| Max | Avg | Min | Max | Avg | Min | Max | Avg | Min | Max | Avg | Min | Max | Avg | Min | ||
| 1/31/2026 | 46 | 51.0 | 24 | 50 | 35.3 | 10 | 75 | 55.5 | 41 | 29 | 14.2 | 3 | 30.0 | 29.9 | 29.8 | 0.00 |
| 1/30/2026 | 62 | 59.5 | 31 | 47 | 42.0 | 37 | 90 | 57.4 | 28 | 13 | 5.3 | 0 | 30.0 | 30.0 | 29.9 | 0.00 |
| 1/29/2026 | 72 | 51.3 | 44 | 42 | 35.3 | 31 | 80 | 58.0 | 29 | 12 | 7.4 | 0 | 30.2 | 30.1 | 30.0 | 0.00 |
| 1/28/2026 | 66 | 47.3 | 37 | 33 | 21.5 | 11 | 68 | 40.6 | 14 | 14 | 8.4 | 0 | 30.2 | 30.2 | 30.1 | 0.00 |
| 1/27/2026 | 61 | 43.4 | 36 | 27 | 21.4 | 18 | 55 | 43.0 | 25 | 16 | 8.7 | 0 | 30.4 | 30.3 | 30.2 | 0.00 |
| 1/26/2026 | 54 | 67.5 | 35 | 70 | 58.9 | 22 | 93 | 75.4 | 37 | 23 | 14.0 | 8 | 30.2 | 30.0 | 29.8 | 0.00 |
| 1/25/2026 | 74 | 68.8 | 46 | 70 | 62.8 | 59 | 100 | 84.2 | 44 | 22 | 8.7 | 0 | 30.0 | 29.9 | 29.8 | 0.00 |
| 1/24/2026 | 87 | 66.4 | 59 | 63 | 60.6 | 57 | 100 | 83.8 | 49 | 12 | 6.8 | 0 | 30.1 | 30.0 | 30.0 | 0.00 |
| 1/23/2026 | 81 | 67.3 | 59 | 62 | 58.7 | 55 | 100 | 77.2 | 43 | 10 | 5.2 | 0 | 30.0 | 30.0 | 30.0 | 0.00 |
| 1/22/2026 | 81 | 64.8 | 57 | 60 | 57.4 | 54 | 96 | 78.3 | 57 | 13 | 6.9 | 0 | 30.1 | 30.0 | 30.0 | 0.00 |
| 1/21/2026 | 78 | 59.4 | 54 | 54 | 48.1 | 43 | 94 | 68.5 | 41 | 16 | 9.7 | 3 | 30.3 | 30.2 | 30.1 | 0.00 |
| 1/20/2026 | 75 | 51.2 | 46 | 43 | 35.3 | 28 | 76 | 56.8 | 34 | 16 | 11.3 | 8 | 30.3 | 30.3 | 30.2 | 0.00 |
| 1/19/2026 | 66 | 46.5 | 38 | 37 | 27.8 | 21 | 87 | 52.2 | 27 | 16 | 8.9 | 0 | 30.2 | 30.1 | 30.1 | 0.00 |
| 1/18/2026 | 59 | 55.9 | 38 | 59 | 49.5 | 36 | 100 | 80.5 | 44 | 38 | 11.6 | 0 | 30.1 | 29.9 | 29.9 | 0.00 |
| 1/17/2026 | 79 | 59.0 | 43 | 57 | 47.7 | 39 | 100 | 69.3 | 41 | 12 | 5.9 | 0 | 30.1 | 30.0 | 30.0 | 0.00 |
| 1/16/2026 | 59 | 46.7 | 32 | 41 | 27.3 | 19 | 81 | 49.5 | 29 | 10 | 4.4 | 0 | 30.1 | 30.1 | 30.0 | 0.00 |
| 1/15/2026 | 59 | 54.7 | 32 | 57 | 44.1 | 19 | 100 | 71.8 | 26 | 24 | 10.7 | 0 | 30.0 | 29.8 | 29.7 | 0.53 |
| 1/14/2026 | 66 | 61.5 | 57 | 59 | 53.0 | 45 | 100 | 75.3 | 49 | 17 | 5.9 | 0 | 29.9 | 29.8 | 29.8 | 0.00 |
| 1/13/2026 | 67 | 63.0 | 57 | 59 | 55.9 | 54 | 94 | 79.0 | 50 | 12 | 7.8 | 0 | 30.1 | 30.0 | 29.9 | 0.00 |
| 1/12/2026 | 76 | 58.3 | 55 | 54 | 47.4 | 36 | 94 | 67.9 | 51 | 17 | 11.8 | 9 | 30.2 | 30.1 | 30.1 | 0.01 |
| 1/11/2026 | 79 | 65.9 | 55 | 66 | 58.5 | 37 | 100 | 78.8 | 51 | 22 | 8.9 | 0 | 30.2 | 30.0 | 30.0 | 0.00 |
| 1/10/2026 | 80 | 70.0 | 55 | 66 | 63.6 | 61 | 100 | 82.9 | 48 | 15 | 4.8 | 0 | 30.1 | 30.1 | 30.0 | 0.00 |
| 1/9/2026 | 82 | 71.7 | 64 | 66 | 64.2 | 63 | 100 | 79.7 | 51 | 13 | 6.1 | 0 | 30.1 | 30.1 | 30.0 | 0.00 |
| 1/8/2026 | 81 | 69.2 | 61 | 64 | 61.0 | 57 | 100 | 77.9 | 45 | 12 | 5.0 | 0 | 30.1 | 30.0 | 30.0 | 0.00 |
| 1/7/2026 | 81 | 66.8 | 57 | 64 | 60.1 | 55 | 100 | 81.9 | 45 | 9 | 4.0 | 0 | 30.0 | 30.0 | 29.9 | 0.00 |
| 1/6/2026 | 81 | 66.8 | 55 | 63 | 58.4 | 55 | 100 | 78.0 | 45 | 10 | 2.8 | 0 | 30.0 | 30.0 | 29.9 | 0.00 |
| 1/5/2026 | 73 | 62.5 | 57 | 63 | 59.4 | 57 | 100 | 90.3 | 65 | 10 | 4.9 | 0 | 30.0 | 30.0 | 30.0 | 0.00 |
| 1/4/2026 | 70 | 60.3 | 55 | 61 | 57.1 | 55 | 100 | 90.5 | 64 | 12 | 7.2 | 0 | 30.0 | 29.9 | 29.8 | 0.00 |
| 1/3/2026 | 77 | 63.2 | 52 | 64 | 58.7 | 52 | 100 | 87.1 | 50 | 18 | 9.4 | 5 | 29.9 | 29.8 | 29.8 | 0.00 |
| 1/2/2026 | 77 | 57.5 | 51 | 52 | 47.1 | 42 | 100 | 71.6 | 43 | 10 | 4.8 | 0 | 30.0 | 29.9 | 29.9 | 0.00 |
| 1/1/2026 | 65 | 52.5 | 39 | 41 | 33.6 | 25 | 96 | 54.8 | 24 | 13 | 5.6 | 0 | 30.1 | 30.0 | 30.0 | 0.00 |